createdAt,value
2018-03-21T00:00:44.959Z,4.63
2018-03-21T00:03:12.651Z,4.16
2018-03-21T00:05:40.502Z,3.97
2018-03-21T00:08:08.207Z,3.63
2018-03-21T00:10:35.922Z,3.43
2018-03-21T00:13:03.582Z,3.44
2018-03-21T00:15:31.271Z,3.44
2018-03-21T00:17:59.037Z,3.40
2018-03-21T00:20:26.738Z,3.30
2018-03-21T00:22:54.543Z,3.23
2018-03-21T00:25:22.387Z,3.15
2018-03-21T00:27:50.061Z,3.07
2018-03-21T00:30:17.764Z,3.13
2018-03-21T00:32:45.422Z,3.10
2018-03-21T00:35:13.330Z,3.01
2018-03-21T00:37:40.998Z,3.15
2018-03-21T00:40:08.687Z,3.20
2018-03-21T00:42:36.358Z,3.27
2018-03-21T00:45:04.043Z,3.35
2018-03-21T00:47:31.710Z,3.40
2018-03-21T00:49:59.411Z,3.30
2018-03-21T00:52:27.068Z,3.36
2018-03-21T00:54:54.756Z,3.56
2018-03-21T00:57:22.463Z,3.80
2018-03-21T00:59:50.113Z,3.88
2018-03-21T01:02:17.777Z,3.93
2018-03-21T01:04:45.481Z,4.02
2018-03-21T01:07:13.190Z,4.07
2018-03-21T01:09:40.894Z,4.15
2018-03-21T01:12:08.569Z,4.23
2018-03-21T01:14:36.249Z,4.26
2018-03-21T01:17:03.906Z,4.17
2018-03-21T01:19:31.518Z,4.07
2018-03-21T01:21:59.182Z,4.08
2018-03-21T01:24:26.867Z,4.20
2018-03-21T01:26:54.450Z,4.20
2018-03-21T01:29:22.152Z,4.24
2018-03-21T01:31:49.816Z,4.18
2018-03-21T01:34:17.410Z,4.11
2018-03-21T01:36:45.867Z,4.10
2018-03-21T01:39:13.625Z,4.17
2018-03-21T01:41:41.208Z,4.16
2018-03-21T01:44:08.911Z,4.13
2018-03-21T01:46:36.595Z,4.13
2018-03-21T01:49:04.283Z,4.13
2018-03-21T01:51:31.986Z,4.13
2018-03-21T01:53:59.605Z,4.13
2018-03-21T01:56:27.186Z,4.18
2018-03-21T01:58:54.995Z,4.21
2018-03-21T02:01:22.595Z,4.22
2018-03-21T02:03:50.202Z,4.25
2018-03-21T02:06:17.776Z,4.28
2018-03-21T02:08:45.407Z,4.23
2018-03-21T02:11:12.987Z,4.20
2018-03-21T02:13:40.611Z,4.11
2018-03-21T02:16:08.298Z,4.03
2018-03-21T02:18:35.882Z,3.95
2018-03-21T02:21:03.507Z,3.81
2018-03-21T02:23:31.170Z,3.73
2018-03-21T02:25:58.781Z,3.66
2018-03-21T02:28:26.369Z,3.67
2018-03-21T02:30:53.982Z,3.68
2018-03-21T02:33:21.575Z,3.66
2018-03-21T02:35:49.371Z,3.69
2018-03-21T02:38:17.034Z,3.78
2018-03-21T02:40:44.719Z,3.70
2018-03-21T02:43:12.302Z,3.69
2018-03-21T02:45:39.948Z,3.69
2018-03-21T02:48:07.625Z,3.76
2018-03-21T02:50:35.231Z,3.67
2018-03-21T02:53:02.819Z,3.61
2018-03-21T02:55:30.512Z,3.61
2018-03-21T02:57:58.216Z,3.64
2018-03-21T03:00:25.927Z,3.66
2018-03-21T03:02:53.581Z,3.69
2018-03-21T03:05:21.207Z,3.67
2018-03-21T03:07:48.799Z,3.69
2018-03-21T03:10:16.654Z,3.64
2018-03-21T03:12:44.239Z,3.66
2018-03-21T03:15:11.977Z,3.68
2018-03-21T03:17:39.590Z,3.53
2018-03-21T03:20:07.200Z,3.50
2018-03-21T03:22:34.895Z,3.49
2018-03-21T03:25:02.591Z,3.47
2018-03-21T03:27:30.191Z,3.27
2018-03-21T03:29:57.883Z,3.18
2018-03-21T03:32:25.473Z,3.01
2018-03-21T03:34:53.136Z,2.90
2018-03-21T03:37:20.786Z,2.89
2018-03-21T03:39:48.666Z,2.97
2018-03-21T03:42:16.349Z,3.05
2018-03-21T03:44:44.034Z,3.11
2018-03-21T03:47:11.689Z,3.18
2018-03-21T03:49:39.311Z,3.17
2018-03-21T03:52:07.013Z,3.19
2018-03-21T03:54:34.708Z,3.13
2018-03-21T03:57:02.453Z,3.12
2018-03-21T03:59:30.143Z,3.09
2018-03-21T04:01:57.806Z,3.04
2018-03-21T04:04:26.451Z,2.95
2018-03-21T04:06:54.104Z,2.86
2018-03-21T04:09:21.802Z,2.81
2018-03-21T04:11:49.458Z,2.85
2018-03-21T04:14:17.278Z,2.80
2018-03-21T04:16:44.928Z,2.77
2018-03-21T04:19:12.651Z,2.87
2018-03-21T04:21:40.308Z,2.80
2018-03-21T04:24:07.995Z,2.82
2018-03-21T04:26:35.654Z,2.75
2018-03-21T04:29:03.342Z,2.61
2018-03-21T04:31:31.033Z,2.52
2018-03-21T04:33:58.734Z,2.52
2018-03-21T04:36:26.414Z,2.57
2018-03-21T04:38:54.209Z,2.53
2018-03-21T04:41:21.870Z,2.49
2018-03-21T04:43:49.559Z,2.55
2018-03-21T04:46:17.223Z,2.56
2018-03-21T04:48:44.938Z,2.59
2018-03-21T04:51:12.586Z,2.61
2018-03-21T04:53:40.367Z,2.64
2018-03-21T04:56:08.158Z,2.56
2018-03-21T04:58:35.838Z,2.54
2018-03-21T05:01:03.494Z,2.53
2018-03-21T05:03:31.178Z,2.50
2018-03-21T05:05:58.927Z,2.44
2018-03-21T05:08:26.747Z,2.48
2018-03-21T05:10:54.402Z,2.59
2018-03-21T05:13:22.142Z,2.57
2018-03-21T05:15:49.783Z,2.46
2018-03-21T05:18:17.475Z,2.41
2018-03-21T05:20:45.336Z,2.43
2018-03-21T05:23:13.023Z,2.44
2018-03-21T05:25:40.750Z,2.37
2018-03-21T05:28:08.540Z,2.40
2018-03-21T05:30:36.193Z,2.42
2018-03-21T05:33:04.003Z,2.50
2018-03-21T05:35:31.654Z,2.50
2018-03-21T05:37:59.319Z,2.44
2018-03-21T05:40:27.020Z,2.48
2018-03-21T05:42:54.682Z,2.44
2018-03-21T05:45:22.370Z,2.48
2018-03-21T05:47:50.034Z,2.57
2018-03-21T05:50:17.650Z,2.46
2018-03-21T05:52:45.315Z,2.39
2018-03-21T05:55:13.176Z,2.34
2018-03-21T05:57:40.834Z,2.34
2018-03-21T06:00:08.598Z,2.37
2018-03-21T06:02:36.267Z,2.42
2018-03-21T06:05:03.955Z,2.53
2018-03-21T06:07:31.611Z,2.52
2018-03-21T06:09:59.322Z,2.48
2018-03-21T06:12:26.988Z,2.45
2018-03-21T06:14:54.682Z,2.47
2018-03-21T06:17:22.344Z,2.49
2018-03-21T06:19:50.041Z,2.39
2018-03-21T06:22:17.694Z,2.40
2018-03-21T06:24:45.447Z,2.44
2018-03-21T06:27:13.122Z,2.49
2018-03-21T06:29:40.806Z,2.55
2018-03-21T06:32:08.482Z,2.65
2018-03-21T06:34:36.190Z,2.75
2018-03-21T06:37:03.853Z,2.72
2018-03-21T06:39:31.554Z,2.67
2018-03-21T06:41:59.300Z,2.51
2018-03-21T06:44:27.169Z,2.48
2018-03-21T06:46:54.834Z,2.33
2018-03-21T06:49:22.715Z,2.22
2018-03-21T06:51:50.374Z,2.27
2018-03-21T06:54:18.062Z,2.15
2018-03-21T06:56:45.757Z,2.07
2018-03-21T06:59:13.476Z,1.88
2018-03-21T07:01:41.141Z,1.90
2018-03-21T07:04:08.816Z,1.78
2018-03-21T07:06:36.637Z,1.66
2018-03-21T07:09:04.359Z,1.58
2018-03-21T07:11:33.199Z,1.49
2018-03-21T07:17:02.555Z,0.97
2018-03-21T07:19:31.691Z,1.13
2018-03-21T07:21:59.431Z,0.96
2018-03-21T07:24:27.418Z,0.95
2018-03-21T07:26:55.728Z,1.04
2018-03-21T07:29:23.491Z,1.13
2018-03-21T07:31:51.147Z,1.30
2018-03-21T07:34:18.843Z,1.35
2018-03-21T07:36:46.570Z,1.24
2018-03-21T07:39:14.275Z,1.13
2018-03-21T07:41:41.941Z,1.14
2018-03-21T07:44:09.639Z,1.07
2018-03-21T07:46:37.347Z,1.12
2018-03-21T07:49:05.075Z,1.19
2018-03-21T07:51:32.742Z,1.23
2018-03-21T07:54:00.457Z,1.15
2018-03-21T07:56:28.123Z,1.05
2018-03-21T07:58:55.824Z,1.05
2018-03-21T08:01:23.499Z,1.10
2018-03-21T08:03:51.341Z,1.18
2018-03-21T08:06:19.015Z,1.35
2018-03-21T08:08:46.715Z,1.40
2018-03-21T08:11:14.515Z,1.49
2018-03-21T08:13:42.227Z,1.43
2018-03-21T08:16:09.931Z,1.38
2018-03-21T08:18:37.719Z,1.28
2018-03-21T08:21:05.380Z,1.35
2018-03-21T08:23:33.079Z,1.29
2018-03-21T08:26:00.831Z,1.26
2018-03-21T08:28:28.539Z,1.22
2018-03-21T08:30:56.215Z,1.27
2018-03-21T08:33:23.919Z,1.30
2018-03-21T08:35:51.756Z,1.29
2018-03-21T08:38:19.427Z,1.31
2018-03-21T08:40:47.118Z,1.37
2018-03-21T08:43:14.831Z,1.27
2018-03-21T08:45:42.507Z,1.28
2018-03-21T08:48:10.316Z,1.27
2018-03-21T08:50:37.919Z,1.39
2018-03-21T08:53:05.589Z,1.41
2018-03-21T08:55:33.547Z,1.48
2018-03-21T08:58:01.227Z,1.47
2018-03-21T09:00:28.938Z,1.54
2018-03-21T09:02:56.726Z,1.46
2018-03-21T09:05:24.396Z,1.49
2018-03-21T09:07:52.107Z,1.58
2018-03-21T09:10:19.809Z,1.68
2018-03-21T09:12:47.586Z,1.62
2018-03-21T09:15:15.263Z,1.54
2018-03-21T09:17:42.950Z,1.41
2018-03-21T09:20:10.644Z,1.44
2018-03-21T09:22:38.310Z,1.53
2018-03-21T09:25:05.991Z,1.66
2018-03-21T09:27:33.691Z,1.80
2018-03-21T09:30:01.432Z,1.99
2018-03-21T09:32:29.142Z,2.06
2018-03-21T09:34:56.822Z,2.08
2018-03-21T09:37:24.593Z,2.12
2018-03-21T09:39:52.255Z,2.14
2018-03-21T09:42:19.940Z,2.22
2018-03-21T09:44:47.627Z,2.36
2018-03-21T09:47:15.322Z,2.49
2018-03-21T09:49:43.038Z,2.56
2018-03-21T09:52:10.727Z,2.56
2018-03-21T09:54:43.322Z,2.50
2018-03-21T09:57:10.997Z,2.42
2018-03-21T09:59:38.704Z,2.41
2018-03-21T10:02:06.536Z,2.45
2018-03-21T10:04:34.311Z,2.47
2018-03-21T10:07:01.989Z,2.46
2018-03-21T10:09:29.726Z,2.43
2018-03-21T10:11:57.446Z,2.33
2018-03-21T10:14:25.145Z,2.38
2018-03-21T10:16:52.841Z,2.30
2018-03-21T10:19:20.578Z,2.32
2018-03-21T10:21:48.244Z,2.30
2018-03-21T10:24:15.951Z,2.34
2018-03-21T10:26:43.639Z,2.40
2018-03-21T10:29:11.330Z,2.46
2018-03-21T10:31:38.998Z,2.44
2018-03-21T10:34:06.712Z,2.50
2018-03-21T10:36:34.382Z,2.54
2018-03-21T10:39:02.086Z,2.52
2018-03-21T10:41:29.770Z,2.50
2018-03-21T10:43:57.505Z,2.57
2018-03-21T10:46:25.199Z,2.60
2018-03-21T10:48:52.944Z,2.69
2018-03-21T10:51:20.758Z,2.74
2018-03-21T10:53:48.686Z,2.70
2018-03-21T10:56:16.516Z,2.77
2018-03-21T10:58:44.234Z,2.87
2018-03-21T11:01:17.636Z,2.94
2018-03-21T11:03:51.096Z,2.99
2018-03-21T11:06:18.794Z,3.05
2018-03-21T11:08:46.574Z,3.09
2018-03-21T11:11:14.251Z,3.15
2018-03-21T11:13:41.949Z,3.22
2018-03-21T11:16:09.876Z,3.26
2018-03-21T11:18:37.626Z,3.25
2018-03-21T11:21:05.308Z,3.33
2018-03-21T11:23:33.128Z,3.40
2018-03-21T11:26:00.796Z,3.42
2018-03-21T11:28:28.611Z,3.46
2018-03-21T11:30:56.292Z,3.54
2018-03-21T11:33:23.985Z,3.59
2018-03-21T11:35:51.649Z,3.63
2018-03-21T11:38:19.363Z,3.60
2018-03-21T11:40:47.065Z,3.56
2018-03-21T11:43:14.843Z,3.51
2018-03-21T11:45:42.565Z,3.53
2018-03-21T11:48:10.267Z,3.47
2018-03-21T11:50:37.930Z,3.47
2018-03-21T11:53:05.636Z,3.53
2018-03-21T11:55:33.320Z,3.56
2018-03-21T11:58:01.038Z,3.62
2018-03-21T12:00:28.706Z,3.54
2018-03-21T12:02:57.184Z,3.57
2018-03-21T12:05:24.860Z,3.61
2018-03-21T12:07:52.719Z,3.67
2018-03-21T12:10:20.409Z,3.72
2018-03-21T12:12:48.118Z,3.86
2018-03-21T12:15:15.795Z,4.00
2018-03-21T12:17:43.581Z,4.08
2018-03-21T12:20:11.252Z,4.16
2018-03-21T12:22:38.943Z,4.17
2018-03-21T12:25:06.640Z,4.18
2018-03-21T12:27:34.339Z,4.21
2018-03-21T12:30:02.111Z,4.36
2018-03-21T12:32:29.818Z,4.45
2018-03-21T12:34:57.509Z,4.49
2018-03-21T12:37:25.134Z,4.38
2018-03-21T12:39:52.820Z,4.29
2018-03-21T12:42:20.520Z,4.44
2018-03-21T12:44:48.218Z,4.66
2018-03-21T12:47:15.919Z,4.87
2018-03-21T12:49:43.627Z,5.02
2018-03-21T12:52:11.347Z,4.98
2018-03-21T12:54:39.042Z,5.02
2018-03-21T12:57:06.940Z,5.03
2018-03-21T12:59:34.647Z,5.04
2018-03-21T13:02:02.322Z,5.07
2018-03-21T13:04:30.073Z,5.20
2018-03-21T13:06:57.670Z,5.69
2018-03-21T13:09:25.397Z,5.91
2018-03-21T13:11:53.094Z,6.04
2018-03-21T13:14:20.809Z,6.17
2018-03-21T13:16:48.418Z,5.94
2018-03-21T13:19:16.067Z,5.79
2018-03-21T13:21:43.658Z,5.79
2018-03-21T13:24:11.286Z,5.78
2018-03-21T13:26:38.974Z,5.80
2018-03-21T13:29:06.688Z,5.71
2018-03-21T13:31:34.289Z,5.59
2018-03-21T13:34:01.917Z,5.54
2018-03-21T13:36:29.598Z,5.45
2018-03-21T13:38:57.403Z,5.43
2018-03-21T13:41:25.168Z,5.45
2018-03-21T13:43:52.933Z,5.51
2018-03-21T13:46:20.537Z,5.60
2018-03-21T13:48:48.180Z,5.75
2018-03-21T13:51:15.782Z,6.18
2018-03-21T13:53:43.403Z,6.56
2018-03-21T13:56:11.139Z,7.17
2018-03-21T13:58:38.762Z,7.14
2018-03-21T14:01:06.375Z,6.89
2018-03-21T14:03:33.986Z,6.66
2018-03-21T14:06:01.605Z,6.42
2018-03-21T14:08:29.238Z,6.48
2018-03-21T14:10:56.866Z,6.50
2018-03-21T14:13:24.530Z,6.51
2018-03-21T14:15:52.111Z,6.89
2018-03-21T14:18:19.739Z,7.67
2018-03-21T14:20:47.323Z,7.93
2018-03-21T14:23:15.064Z,8.23
2018-03-21T14:25:42.662Z,8.41
2018-03-21T14:28:10.296Z,8.47
2018-03-21T14:30:37.906Z,7.94
2018-03-21T14:33:05.523Z,7.97
2018-03-21T14:35:33.139Z,7.94
2018-03-21T14:38:00.744Z,8.11
2018-03-21T14:40:28.381Z,8.74
2018-03-21T14:42:55.966Z,9.22
2018-03-21T14:45:23.606Z,9.30
2018-03-21T14:47:51.184Z,9.18
2018-03-21T14:50:18.881Z,8.87
2018-03-21T14:52:46.487Z,8.51
2018-03-21T14:55:14.125Z,8.59
2018-03-21T14:57:41.734Z,8.82
2018-03-21T15:00:09.386Z,8.83
2018-03-21T15:02:37.010Z,9.60
2018-03-21T15:05:04.704Z,10.23
2018-03-21T15:07:32.344Z,10.48
2018-03-21T15:09:59.983Z,10.29
2018-03-21T15:12:27.595Z,9.99
2018-03-21T15:14:55.225Z,9.87
2018-03-21T15:17:22.914Z,10.01
2018-03-21T15:19:50.537Z,10.53
2018-03-21T15:22:18.146Z,10.48
2018-03-21T15:24:45.808Z,10.77
2018-03-21T15:27:13.434Z,11.01
2018-03-21T15:29:41.087Z,11.21
2018-03-21T15:32:08.694Z,11.65
2018-03-21T15:34:36.334Z,11.14
2018-03-21T15:37:03.925Z,10.64
2018-03-21T15:39:31.583Z,9.77
2018-03-21T15:41:59.175Z,9.21
2018-03-21T15:44:26.813Z,9.10
2018-03-21T15:46:54.403Z,9.04
2018-03-21T15:49:22.087Z,8.50
2018-03-21T15:51:49.675Z,8.36
2018-03-21T15:54:17.340Z,8.27
2018-03-21T15:56:44.956Z,8.16
2018-03-21T15:59:12.614Z,8.07
2018-03-21T16:01:40.216Z,7.94
2018-03-21T16:04:07.874Z,7.98
2018-03-21T16:06:35.465Z,7.79
2018-03-21T16:09:03.108Z,7.47
2018-03-21T16:11:30.706Z,7.12
2018-03-21T16:13:58.339Z,7.07
2018-03-21T16:16:25.931Z,7.28
2018-03-21T16:18:53.546Z,7.61
2018-03-21T16:21:21.166Z,7.99
2018-03-21T16:23:48.849Z,8.52
2018-03-21T16:26:16.434Z,8.98
2018-03-21T16:28:44.074Z,8.84
2018-03-21T16:31:11.671Z,8.68
2018-03-21T16:33:39.344Z,8.53
2018-03-21T16:36:06.957Z,8.53
2018-03-21T16:38:34.583Z,8.46
2018-03-21T16:41:02.179Z,8.28
2018-03-21T16:43:29.822Z,8.26
2018-03-21T16:45:57.427Z,8.31
2018-03-21T16:48:25.130Z,8.06
2018-03-21T16:50:52.768Z,7.78
2018-03-21T16:53:20.400Z,7.54
2018-03-21T16:55:47.978Z,7.32
2018-03-21T16:58:15.591Z,7.16
2018-03-21T17:00:43.224Z,7.11
2018-03-21T17:03:10.811Z,7.03
2018-03-21T17:05:38.430Z,6.99
2018-03-21T17:08:06.045Z,6.91
2018-03-21T17:10:33.684Z,6.84
2018-03-21T17:13:01.304Z,6.81
2018-03-21T17:15:28.928Z,6.77
2018-03-21T17:17:56.532Z,6.77
2018-03-21T17:20:24.163Z,6.82
2018-03-21T17:22:51.760Z,6.85
2018-03-21T17:25:19.415Z,6.92
2018-03-21T17:27:47.008Z,6.94
2018-03-21T17:30:14.638Z,6.93
2018-03-21T17:32:42.291Z,6.91
2018-03-21T17:35:09.906Z,6.93
2018-03-21T17:37:37.506Z,6.93
2018-03-21T17:40:05.127Z,6.89
2018-03-21T17:42:32.727Z,6.76
2018-03-21T17:45:00.346Z,6.58
2018-03-21T17:47:27.947Z,6.47
2018-03-21T17:49:55.581Z,6.44
2018-03-21T17:52:23.277Z,6.46
2018-03-21T17:54:50.891Z,6.43
2018-03-21T17:57:18.520Z,6.41
2018-03-21T17:59:46.138Z,6.34
2018-03-21T18:02:13.734Z,6.34
2018-03-21T18:04:41.350Z,6.25
2018-03-21T18:07:08.985Z,6.16
2018-03-21T18:09:36.593Z,6.10
2018-03-21T18:12:04.269Z,6.08
2018-03-21T18:14:31.834Z,6.01
2018-03-21T18:16:59.487Z,6.03
2018-03-21T18:19:27.164Z,6.04
2018-03-21T18:21:54.803Z,6.06
2018-03-21T18:24:22.395Z,6.02
2018-03-21T18:26:50.016Z,6.05
2018-03-21T18:29:17.634Z,6.16
2018-03-21T18:31:45.287Z,6.28
2018-03-21T18:34:12.914Z,6.36
2018-03-21T18:36:40.517Z,6.27
2018-03-21T18:39:08.183Z,6.04
2018-03-21T18:41:35.796Z,5.91
2018-03-21T18:44:03.420Z,6.00
2018-03-21T18:46:31.078Z,6.00
2018-03-21T18:48:58.707Z,5.94
2018-03-21T18:51:26.359Z,5.82
2018-03-21T18:53:53.974Z,5.77
2018-03-21T18:56:21.596Z,5.70
2018-03-21T18:58:49.212Z,5.72
2018-03-21T19:01:16.849Z,5.72
2018-03-21T19:03:44.445Z,5.78
2018-03-21T19:06:12.064Z,5.81
2018-03-21T19:08:39.676Z,5.83
2018-03-21T19:11:07.312Z,5.68
2018-03-21T19:13:34.967Z,5.62
2018-03-21T19:16:02.615Z,5.55
2018-03-21T19:18:30.246Z,5.51
2018-03-21T19:20:57.918Z,5.39
2018-03-21T19:23:25.516Z,5.24
2018-03-21T19:25:53.235Z,5.27
2018-03-21T19:28:20.846Z,5.24
2018-03-21T19:30:48.478Z,5.18
2018-03-21T19:33:16.116Z,5.09
2018-03-21T19:35:43.730Z,5.07
2018-03-21T19:38:11.364Z,5.20
2018-03-21T19:40:38.978Z,5.36
2018-03-21T19:43:06.671Z,5.49
2018-03-21T19:45:34.273Z,5.53
2018-03-21T19:48:01.905Z,5.51
2018-03-21T19:50:29.492Z,5.61
2018-03-21T19:52:57.156Z,5.69
2018-03-21T19:55:24.764Z,5.68
2018-03-21T19:57:52.407Z,5.60
2018-03-21T20:00:20.003Z,5.49
2018-03-21T20:02:47.643Z,5.28
2018-03-21T20:05:15.263Z,5.21
2018-03-21T20:07:42.851Z,5.28
2018-03-21T20:10:10.499Z,5.36
2018-03-21T20:12:38.106Z,5.46
2018-03-21T20:15:05.746Z,5.36
2018-03-21T20:17:33.360Z,5.32
2018-03-21T20:20:01.003Z,5.34
2018-03-21T20:22:28.597Z,5.39
2018-03-21T20:24:56.293Z,5.32
2018-03-21T20:27:23.859Z,5.36
2018-03-21T20:29:51.445Z,5.43
2018-03-21T20:32:19.038Z,5.37
2018-03-21T20:34:46.768Z,5.33
2018-03-21T20:37:14.393Z,5.22
2018-03-21T20:39:42.034Z,5.25
2018-03-21T20:42:09.629Z,5.14
2018-03-21T20:44:37.253Z,5.07
2018-03-21T20:47:04.871Z,5.09
2018-03-21T20:49:32.499Z,5.10
2018-03-21T20:52:00.164Z,4.98
2018-03-21T20:54:27.791Z,4.89
2018-03-21T20:56:55.399Z,5.01
2018-03-21T20:59:23.036Z,5.08
2018-03-21T21:01:50.687Z,5.15
2018-03-21T21:04:18.323Z,5.06
2018-03-21T21:06:45.908Z,5.00
2018-03-21T21:09:13.570Z,5.04
2018-03-21T21:11:41.167Z,5.02
2018-03-21T21:14:08.855Z,4.96
2018-03-21T21:16:36.456Z,4.70
2018-03-21T21:19:04.093Z,4.67
2018-03-21T21:21:31.682Z,4.80
2018-03-21T21:23:59.310Z,4.87
2018-03-21T21:26:27.043Z,4.79
2018-03-21T21:28:54.667Z,4.82
2018-03-21T21:31:22.274Z,4.61
2018-03-21T21:33:49.899Z,4.48
2018-03-21T21:36:17.503Z,4.35
2018-03-21T21:38:45.140Z,4.19
2018-03-21T21:41:12.771Z,4.11
2018-03-21T21:43:40.411Z,4.04
2018-03-21T21:46:08.023Z,3.96
2018-03-21T21:48:35.655Z,3.97
2018-03-21T21:51:03.338Z,4.01
2018-03-21T21:53:30.988Z,3.97
2018-03-21T21:55:58.725Z,3.89
2018-03-21T21:58:26.424Z,3.90
2018-03-21T22:00:54.729Z,3.93
2018-03-21T22:03:22.401Z,3.89
2018-03-21T22:05:50.078Z,3.76
2018-03-21T22:08:17.790Z,3.72
2018-03-21T22:10:45.457Z,3.77
2018-03-21T22:13:13.086Z,3.88
2018-03-21T22:15:40.775Z,3.87
2018-03-21T22:18:08.474Z,3.84
2018-03-21T22:20:36.074Z,3.96
2018-03-21T22:23:03.783Z,4.12
2018-03-21T22:25:31.379Z,4.25
2018-03-21T22:27:59.014Z,4.29
2018-03-21T22:30:26.819Z,4.86
2018-03-21T22:32:54.443Z,5.05
2018-03-21T22:35:22.107Z,4.47
2018-03-21T22:37:49.800Z,4.11
2018-03-21T22:40:17.404Z,4.02
2018-03-21T22:42:45.167Z,3.90
2018-03-21T22:45:12.850Z,3.84
2018-03-21T22:47:40.574Z,3.83
2018-03-21T22:50:08.157Z,3.83
2018-03-21T22:52:35.753Z,3.92
2018-03-21T22:55:03.395Z,4.05
2018-03-21T22:57:31.006Z,4.02
2018-03-21T22:59:58.649Z,3.87
2018-03-21T23:02:26.275Z,3.85
2018-03-21T23:04:53.894Z,3.87
2018-03-21T23:07:21.489Z,3.92
2018-03-21T23:09:49.171Z,3.95
2018-03-21T23:12:16.778Z,3.83
2018-03-21T23:14:44.505Z,3.89
2018-03-21T23:17:12.106Z,3.79
2018-03-21T23:19:39.819Z,3.63
2018-03-21T23:22:07.523Z,3.50
2018-03-21T23:24:35.178Z,3.44
2018-03-21T23:27:02.798Z,3.45
2018-03-21T23:29:30.448Z,3.40
2018-03-21T23:31:58.136Z,3.41
2018-03-21T23:34:25.838Z,3.42
2018-03-21T23:36:53.524Z,3.43
2018-03-21T23:39:21.200Z,3.40
2018-03-21T23:41:48.871Z,3.36
2018-03-21T23:44:16.572Z,3.31
2018-03-21T23:46:44.264Z,3.33
2018-03-21T23:49:12.000Z,3.36
2018-03-21T23:51:39.711Z,3.55
2018-03-21T23:54:07.422Z,3.71
2018-03-21T23:56:35.104Z,3.84
2018-03-21T23:59:02.821Z,3.92
